sensor_id;sensor_type;location;lat;lon;timestamp;temperature;humidity
7646;DHT22;3864;48.180;14.178;2023-09-08T00:00:01;14.50;99.90
7646;DHT22;3864;48.180;14.178;2023-09-08T00:02:29;14.40;99.90
7646;DHT22;3864;48.180;14.178;2023-09-08T00:04:56;14.30;99.90
7646;DHT22;3864;48.180;14.178;2023-09-08T00:07:23;14.30;99.90
7646;DHT22;3864;48.180;14.178;2023-09-08T00:09:50;14.20;99.90
7646;DHT22;3864;48.180;14.178;2023-09-08T00:12:17;14.00;99.90
7646;DHT22;3864;48.180;14.178;2023-09-08T00:14:45;14.00;99.90
7646;DHT22;3864;48.180;14.178;2023-09-08T00:17:12;13.90;99.90
7646;DHT22;3864;48.180;14.178;2023-09-08T00:19:39;13.90;99.90
7646;DHT22;3864;48.180;14.178;2023-09-08T00:22:06;13.80;99.90
7646;DHT22;3864;48.180;14.178;2023-09-08T00:24:34;13.80;99.90
7646;DHT22;3864;48.180;14.178;2023-09-08T00:27:01;13.70;99.90
7646;DHT22;3864;48.180;14.178;2023-09-08T00:29:28;13.70;99.90
7646;DHT22;3864;48.180;14.178;2023-09-08T00:31:56;13.80;99.90
7646;DHT22;3864;48.180;14.178;2023-09-08T00:34:23;13.70;99.90
7646;DHT22;3864;48.180;14.178;2023-09-08T00:36:50;13.70;99.90
7646;DHT22;3864;48.180;14.178;2023-09-08T00:39:17;13.60;99.90
7646;DHT22;3864;48.180;14.178;2023-09-08T00:41:44;13.60;99.90
7646;DHT22;3864;48.180;14.178;2023-09-08T00:44:11;13.60;99.90
7646;DHT22;3864;48.180;14.178;2023-09-08T00:46:39;13.60;99.90
7646;DHT22;3864;48.180;14.178;2023-09-08T00:49:08;13.50;99.90
7646;DHT22;3864;48.180;14.178;2023-09-08T00:51:35;13.50;99.90
7646;DHT22;3864;48.180;14.178;2023-09-08T00:54:04;13.50;99.90
7646;DHT22;3864;48.180;14.178;2023-09-08T00:56:32;13.60;99.90
7646;DHT22;3864;48.180;14.178;2023-09-08T00:58:59;13.60;99.90
7646;DHT22;3864;48.180;14.178;2023-09-08T01:01:28;13.60;99.90
7646;DHT22;3864;48.180;14.178;2023-09-08T01:03:55;13.50;99.90
7646;DHT22;3864;48.180;14.178;2023-09-08T01:06:29;13.50;99.90
7646;DHT22;3864;48.180;14.178;2023-09-08T01:08:58;13.40;99.90
7646;DHT22;3864;48.180;14.178;2023-09-08T01:11:26;13.40;99.90
7646;DHT22;3864;48.180;14.178;2023-09-08T01:13:53;13.30;99.90
7646;DHT22;3864;48.180;14.178;2023-09-08T01:16:20;13.30;99.90
7646;DHT22;3864;48.180;14.178;2023-09-08T01:18:47;13.40;99.90
7646;DHT22;3864;48.180;14.178;2023-09-08T01:24:37;13.20;99.90
7646;DHT22;3864;48.180;14.178;2023-09-08T01:27:12;13.30;99.90
7646;DHT22;3864;48.180;14.178;2023-09-08T01:29:42;13.40;99.90
7646;DHT22;3864;48.180;14.178;2023-09-08T01:32:10;13.50;99.90
7646;DHT22;3864;48.180;14.178;2023-09-08T01:34:38;13.60;99.90
7646;DHT22;3864;48.180;14.178;2023-09-08T01:37:06;13.70;99.90
7646;DHT22;3864;48.180;14.178;2023-09-08T01:39:34;13.80;99.90
7646;DHT22;3864;48.180;14.178;2023-09-08T01:42:01;13.80;99.90
7646;DHT22;3864;48.180;14.178;2023-09-08T01:44:30;13.80;99.90
7646;DHT22;3864;48.180;14.178;2023-09-08T01:46:57;13.90;99.90
7646;DHT22;3864;48.180;14.178;2023-09-08T01:49:24;13.90;99.90
7646;DHT22;3864;48.180;14.178;2023-09-08T01:51:51;14.00;99.90
7646;DHT22;3864;48.180;14.178;2023-09-08T01:54:18;13.90;99.90
7646;DHT22;3864;48.180;14.178;2023-09-08T01:56:45;13.90;99.90
7646;DHT22;3864;48.180;14.178;2023-09-08T01:59:12;13.80;99.90
7646;DHT22;3864;48.180;14.178;2023-09-08T02:01:41;13.80;99.90
7646;DHT22;3864;48.180;14.178;2023-09-08T02:04:07;13.70;99.90
7646;DHT22;3864;48.180;14.178;2023-09-08T02:06:34;13.60;99.90
7646;DHT22;3864;48.180;14.178;2023-09-08T02:09:01;13.50;99.90
7646;DHT22;3864;48.180;14.178;2023-09-08T02:11:29;13.40;99.90
7646;DHT22;3864;48.180;14.178;2023-09-08T02:13:56;13.40;99.90
7646;DHT22;3864;48.180;14.178;2023-09-08T02:16:23;13.40;99.90
7646;DHT22;3864;48.180;14.178;2023-09-08T02:18:51;13.30;99.90
7646;DHT22;3864;48.180;14.178;2023-09-08T02:21:18;13.30;99.90
7646;DHT22;3864;48.180;14.178;2023-09-08T02:23:45;13.40;99.90
7646;DHT22;3864;48.180;14.178;2023-09-08T02:26:12;13.50;99.90
7646;DHT22;3864;48.180;14.178;2023-09-08T02:28:39;13.50;99.90
7646;DHT22;3864;48.180;14.178;2023-09-08T02:31:06;13.60;99.90
7646;DHT22;3864;48.180;14.178;2023-09-08T02:33:33;13.50;99.90
7646;DHT22;3864;48.180;14.178;2023-09-08T02:36:04;13.40;99.90
7646;DHT22;3864;48.180;14.178;2023-09-08T02:38:31;13.40;99.90
7646;DHT22;3864;48.180;14.178;2023-09-08T02:40:58;13.40;99.90
7646;DHT22;3864;48.180;14.178;2023-09-08T02:43:25;13.30;99.90
7646;DHT22;3864;48.180;14.178;2023-09-08T02:45:52;13.30;99.90
7646;DHT22;3864;48.180;14.178;2023-09-08T02:48:19;13.20;99.90
7646;DHT22;3864;48.180;14.178;2023-09-08T02:50:46;13.20;99.90
7646;DHT22;3864;48.180;14.178;2023-09-08T02:53:15;13.20;99.90
7646;DHT22;3864;48.180;14.178;2023-09-08T02:55:42;13.20;99.90
7646;DHT22;3864;48.180;14.178;2023-09-08T02:58:09;13.10;99.90
7646;DHT22;3864;48.180;14.178;2023-09-08T03:00:36;13.00;99.90
7646;DHT22;3864;48.180;14.178;2023-09-08T03:03:03;12.90;99.90
7646;DHT22;3864;48.180;14.178;2023-09-08T03:05:31;12.90;99.90
7646;DHT22;3864;48.180;14.178;2023-09-08T03:07:58;12.90;99.90
7646;DHT22;3864;48.180;14.178;2023-09-08T03:10:27;12.80;99.90
7646;DHT22;3864;48.180;14.178;2023-09-08T03:12:54;12.80;99.90
7646;DHT22;3864;48.180;14.178;2023-09-08T03:15:21;12.70;99.90
7646;DHT22;3864;48.180;14.178;2023-09-08T03:17:49;12.70;99.90
7646;DHT22;3864;48.180;14.178;2023-09-08T03:20:15;12.70;99.90
7646;DHT22;3864;48.180;14.178;2023-09-08T03:22:42;12.70;99.90
7646;DHT22;3864;48.180;14.178;2023-09-08T03:25:09;12.50;99.90
7646;DHT22;3864;48.180;14.178;2023-09-08T03:27:38;12.40;99.90
7646;DHT22;3864;48.180;14.178;2023-09-08T03:30:06;12.10;99.90
7646;DHT22;3864;48.180;14.178;2023-09-08T03:32:33;12.00;99.90
7646;DHT22;3864;48.180;14.178;2023-09-08T03:35:00;11.80;99.90
7646;DHT22;3864;48.180;14.178;2023-09-08T03:37:27;11.80;99.90
7646;DHT22;3864;48.180;14.178;2023-09-08T03:39:54;11.60;99.90
7646;DHT22;3864;48.180;14.178;2023-09-08T03:42:21;11.50;99.90
7646;DHT22;3864;48.180;14.178;2023-09-08T03:44:49;11.50;99.90
7646;DHT22;3864;48.180;14.178;2023-09-08T03:47:16;11.50;99.90
7646;DHT22;3864;48.180;14.178;2023-09-08T03:49:43;11.40;99.90
7646;DHT22;3864;48.180;14.178;2023-09-08T03:52:10;11.30;99.90
7646;DHT22;3864;48.180;14.178;2023-09-08T03:54:37;11.20;99.90
7646;DHT22;3864;48.180;14.178;2023-09-08T03:57:04;11.10;99.90
7646;DHT22;3864;48.180;14.178;2023-09-08T03:59:31;11.00;99.90
7646;DHT22;3864;48.180;14.178;2023-09-08T04:02:00;10.90;99.90
7646;DHT22;3864;48.180;14.178;2023-09-08T04:04:27;10.90;99.90
7646;DHT22;3864;48.180;14.178;2023-09-08T04:06:54;10.80;99.90
7646;DHT22;3864;48.180;14.178;2023-09-08T04:09:21;10.80;99.90
7646;DHT22;3864;48.180;14.178;2023-09-08T04:11:48;10.80;99.90
7646;DHT22;3864;48.180;14.178;2023-09-08T04:14:15;10.80;99.90
7646;DHT22;3864;48.180;14.178;2023-09-08T04:16:42;10.70;99.90
7646;DHT22;3864;48.180;14.178;2023-09-08T04:19:10;10.70;99.90
7646;DHT22;3864;48.180;14.178;2023-09-08T04:21:37;10.60;99.90
7646;DHT22;3864;48.180;14.178;2023-09-08T04:24:05;10.60;99.90
7646;DHT22;3864;48.180;14.178;2023-09-08T04:26:35;10.50;99.90
7646;DHT22;3864;48.180;14.178;2023-09-08T04:29:02;10.70;99.90
7646;DHT22;3864;48.180;14.178;2023-09-08T04:31:29;10.90;99.90
7646;DHT22;3864;48.180;14.178;2023-09-08T04:33:56;11.20;99.90
7646;DHT22;3864;48.180;14.178;2023-09-08T04:36:25;11.30;99.90
7646;DHT22;3864;48.180;14.178;2023-09-08T04:38:52;11.30;99.90
7646;DHT22;3864;48.180;14.178;2023-09-08T04:41:19;11.40;99.90
7646;DHT22;3864;48.180;14.178;2023-09-08T04:43:46;11.40;99.90
7646;DHT22;3864;48.180;14.178;2023-09-08T04:46:13;11.50;99.90
7646;DHT22;3864;48.180;14.178;2023-09-08T04:48:40;11.50;99.90
7646;DHT22;3864;48.180;14.178;2023-09-08T04:51:07;11.60;99.90
7646;DHT22;3864;48.180;14.178;2023-09-08T04:53:36;11.60;99.90
7646;DHT22;3864;48.180;14.178;2023-09-08T04:56:03;11.70;99.90
7646;DHT22;3864;48.180;14.178;2023-09-08T04:58:30;11.80;99.90
7646;DHT22;3864;48.180;14.178;2023-09-08T05:00:57;11.80;99.90
7646;DHT22;3864;48.180;14.178;2023-09-08T05:03:24;11.80;99.90
7646;DHT22;3864;48.180;14.178;2023-09-08T05:05:51;11.80;99.90
7646;DHT22;3864;48.180;14.178;2023-09-08T05:08:18;11.90;99.90
7646;DHT22;3864;48.180;14.178;2023-09-08T05:10:47;11.80;99.90
7646;DHT22;3864;48.180;14.178;2023-09-08T05:15:41;11.80;99.90
7646;DHT22;3864;48.180;14.178;2023-09-08T05:18:09;11.80;99.90
7646;DHT22;3864;48.180;14.178;2023-09-08T05:20:36;11.70;99.90
7646;DHT22;3864;48.180;14.178;2023-09-08T05:23:03;11.60;99.90
7646;DHT22;3864;48.180;14.178;2023-09-08T05:25:31;11.60;99.90
7646;DHT22;3864;48.180;14.178;2023-09-08T05:27:59;11.50;99.90
7646;DHT22;3864;48.180;14.178;2023-09-08T05:30:26;11.40;99.90
7646;DHT22;3864;48.180;14.178;2023-09-08T05:32:53;11.40;99.90
7646;DHT22;3864;48.180;14.178;2023-09-08T05:35:20;11.40;99.90
7646;DHT22;3864;48.180;14.178;2023-09-08T05:37:47;11.50;99.90
7646;DHT22;3864;48.180;14.178;2023-09-08T05:40:14;11.50;99.90
7646;DHT22;3864;48.180;14.178;2023-09-08T05:42:41;11.60;99.90
7646;DHT22;3864;48.180;14.178;2023-09-08T05:45:10;11.60;99.90
7646;DHT22;3864;48.180;14.178;2023-09-08T05:47:37;11.60;99.90
7646;DHT22;3864;48.180;14.178;2023-09-08T05:50:05;11.70;99.90
7646;DHT22;3864;48.180;14.178;2023-09-08T05:52:32;11.70;99.90
7646;DHT22;3864;48.180;14.178;2023-09-08T05:55:00;11.80;99.90
7646;DHT22;3864;48.180;14.178;2023-09-08T05:57:26;11.80;99.90
7646;DHT22;3864;48.180;14.178;2023-09-08T05:59:53;11.90;99.90
7646;DHT22;3864;48.180;14.178;2023-09-08T06:02:22;11.90;99.90
7646;DHT22;3864;48.180;14.178;2023-09-08T06:04:49;12.00;99.90
7646;DHT22;3864;48.180;14.178;2023-09-08T06:07:16;12.10;99.90
7646;DHT22;3864;48.180;14.178;2023-09-08T06:09:43;12.10;99.90
7646;DHT22;3864;48.180;14.178;2023-09-08T06:12:10;12.20;99.90
7646;DHT22;3864;48.180;14.178;2023-09-08T06:14:37;12.30;99.90
7646;DHT22;3864;48.180;14.178;2023-09-08T06:17:04;12.30;99.90
7646;DHT22;3864;48.180;14.178;2023-09-08T06:19:33;12.40;99.90
7646;DHT22;3864;48.180;14.178;2023-09-08T06:22:00;12.50;99.90
7646;DHT22;3864;48.180;14.178;2023-09-08T06:24:27;12.50;99.90
7646;DHT22;3864;48.180;14.178;2023-09-08T06:26:54;12.60;99.90
7646;DHT22;3864;48.180;14.178;2023-09-08T06:29:21;12.60;99.90
7646;DHT22;3864;48.180;14.178;2023-09-08T06:31:48;12.70;99.90
7646;DHT22;3864;48.180;14.178;2023-09-08T06:34:15;12.70;99.90
7646;DHT22;3864;48.180;14.178;2023-09-08T06:36:50;12.80;99.90
7646;DHT22;3864;48.180;14.178;2023-09-08T06:39:17;12.90;99.90
7646;DHT22;3864;48.180;14.178;2023-09-08T06:41:44;12.90;99.90
7646;DHT22;3864;48.180;14.178;2023-09-08T06:44:11;13.00;99.90
7646;DHT22;3864;48.180;14.178;2023-09-08T06:46:38;13.10;99.90
7646;DHT22;3864;48.180;14.178;2023-09-08T06:49:06;13.50;99.90
7646;DHT22;3864;48.180;14.178;2023-09-08T06:51:33;13.50;99.90
7646;DHT22;3864;48.180;14.178;2023-09-08T06:54:01;13.60;99.90
7646;DHT22;3864;48.180;14.178;2023-09-08T06:56:28;13.70;99.90
7646;DHT22;3864;48.180;14.178;2023-09-08T06:58:56;13.80;99.90
7646;DHT22;3864;48.180;14.178;2023-09-08T07:01:23;13.90;99.90
7646;DHT22;3864;48.180;14.178;2023-09-08T07:03:50;14.00;99.90
7646;DHT22;3864;48.180;14.178;2023-09-08T07:06:17;14.10;99.90
7646;DHT22;3864;48.180;14.178;2023-09-08T07:08:44;14.10;99.90
7646;DHT22;3864;48.180;14.178;2023-09-08T07:11:12;14.20;99.90
7646;DHT22;3864;48.180;14.178;2023-09-08T07:13:39;14.40;99.90
7646;DHT22;3864;48.180;14.178;2023-09-08T07:16:06;14.50;99.90
7646;DHT22;3864;48.180;14.178;2023-09-08T07:18:33;14.50;99.90
7646;DHT22;3864;48.180;14.178;2023-09-08T07:21:03;14.60;99.90
7646;DHT22;3864;48.180;14.178;2023-09-08T07:23:30;14.80;99.90
7646;DHT22;3864;48.180;14.178;2023-09-08T07:25:58;14.80;99.90
7646;DHT22;3864;48.180;14.178;2023-09-08T07:28:26;15.10;99.90
7646;DHT22;3864;48.180;14.178;2023-09-08T07:30:53;15.20;99.90
7646;DHT22;3864;48.180;14.178;2023-09-08T07:33:21;15.30;99.90
7646;DHT22;3864;48.180;14.178;2023-09-08T07:35:48;15.50;99.90
7646;DHT22;3864;48.180;14.178;2023-09-08T07:38:15;15.60;99.90
7646;DHT22;3864;48.180;14.178;2023-09-08T07:40:42;15.70;99.90
7646;DHT22;3864;48.180;14.178;2023-09-08T07:43:09;15.90;99.90
7646;DHT22;3864;48.180;14.178;2023-09-08T07:45:37;16.00;99.90
7646;DHT22;3864;48.180;14.178;2023-09-08T07:48:06;16.00;99.90
7646;DHT22;3864;48.180;14.178;2023-09-08T07:50:33;16.30;99.90
7646;DHT22;3864;48.180;14.178;2023-09-08T07:53:00;16.80;99.90
7646;DHT22;3864;48.180;14.178;2023-09-08T07:55:27;17.10;99.90
7646;DHT22;3864;48.180;14.178;2023-09-08T07:57:55;17.10;99.90
7646;DHT22;3864;48.180;14.178;2023-09-08T08:00:23;17.40;99.90
7646;DHT22;3864;48.180;14.178;2023-09-08T08:02:54;17.50;99.90
7646;DHT22;3864;48.180;14.178;2023-09-08T08:05:21;17.70;99.90
7646;DHT22;3864;48.180;14.178;2023-09-08T08:07:48;17.90;99.90
7646;DHT22;3864;48.180;14.178;2023-09-08T08:10:15;17.90;99.90
7646;DHT22;3864;48.180;14.178;2023-09-08T08:12:43;17.80;99.90
7646;DHT22;3864;48.180;14.178;2023-09-08T08:15:10;17.90;99.90
7646;DHT22;3864;48.180;14.178;2023-09-08T08:17:38;18.00;99.90
7646;DHT22;3864;48.180;14.178;2023-09-08T08:20:11;18.30;99.90
7646;DHT22;3864;48.180;14.178;2023-09-08T08:22:43;18.50;99.90
7646;DHT22;3864;48.180;14.178;2023-09-08T08:25:11;18.70;99.90
7646;DHT22;3864;48.180;14.178;2023-09-08T08:27:38;18.90;99.90
7646;DHT22;3864;48.180;14.178;2023-09-08T08:30:07;19.20;99.90
7646;DHT22;3864;48.180;14.178;2023-09-08T08:32:34;19.30;99.90
7646;DHT22;3864;48.180;14.178;2023-09-08T08:35:02;19.60;99.90
7646;DHT22;3864;48.180;14.178;2023-09-08T08:37:32;20.00;99.90
7646;DHT22;3864;48.180;14.178;2023-09-08T08:40:00;20.60;99.90
7646;DHT22;3864;48.180;14.178;2023-09-08T08:42:31;21.00;99.90
7646;DHT22;3864;48.180;14.178;2023-09-08T08:44:58;21.50;99.90
7646;DHT22;3864;48.180;14.178;2023-09-08T08:47:27;21.60;99.90
7646;DHT22;3864;48.180;14.178;2023-09-08T08:49:56;21.90;99.90
7646;DHT22;3864;48.180;14.178;2023-09-08T08:52:29;22.00;99.90
7646;DHT22;3864;48.180;14.178;2023-09-08T08:55:00;22.40;99.90
7646;DHT22;3864;48.180;14.178;2023-09-08T08:57:28;22.60;99.90
7646;DHT22;3864;48.180;14.178;2023-09-08T08:59:56;22.70;99.90
7646;DHT22;3864;48.180;14.178;2023-09-08T09:02:25;22.90;99.90
7646;DHT22;3864;48.180;14.178;2023-09-08T09:04:55;23.00;99.90
7646;DHT22;3864;48.180;14.178;2023-09-08T09:07:24;23.10;99.90
7646;DHT22;3864;48.180;14.178;2023-09-08T09:09:53;23.30;99.90
7646;DHT22;3864;48.180;14.178;2023-09-08T09:12:21;23.60;99.90
7646;DHT22;3864;48.180;14.178;2023-09-08T09:14:52;23.80;99.90
7646;DHT22;3864;48.180;14.178;2023-09-08T09:17:19;23.80;99.90
7646;DHT22;3864;48.180;14.178;2023-09-08T09:19:46;23.70;99.90
7646;DHT22;3864;48.180;14.178;2023-09-08T09:22:13;23.50;99.90
7646;DHT22;3864;48.180;14.178;2023-09-08T09:24:41;23.40;99.90
7646;DHT22;3864;48.180;14.178;2023-09-08T09:27:09;23.20;99.90
7646;DHT22;3864;48.180;14.178;2023-09-08T09:29:45;22.80;99.90
7646;DHT22;3864;48.180;14.178;2023-09-08T09:32:13;22.50;99.90
7646;DHT22;3864;48.180;14.178;2023-09-08T09:34:48;22.50;99.90
7646;DHT22;3864;48.180;14.178;2023-09-08T09:37:16;22.30;99.90
7646;DHT22;3864;48.180;14.178;2023-09-08T09:39:48;22.20;99.90
7646;DHT22;3864;48.180;14.178;2023-09-08T09:42:15;22.10;99.90
7646;DHT22;3864;48.180;14.178;2023-09-08T09:44:44;22.20;99.90
7646;DHT22;3864;48.180;14.178;2023-09-08T09:47:13;22.30;99.90
7646;DHT22;3864;48.180;14.178;2023-09-08T09:49:42;22.40;99.90
7646;DHT22;3864;48.180;14.178;2023-09-08T09:52:11;22.80;99.90
7646;DHT22;3864;48.180;14.178;2023-09-08T09:54:40;23.20;99.90
7646;DHT22;3864;48.180;14.178;2023-09-08T09:57:09;23.30;99.90
7646;DHT22;3864;48.180;14.178;2023-09-08T09:59:37;23.70;99.90
7646;DHT22;3864;48.180;14.178;2023-09-08T10:02:08;23.90;99.90
7646;DHT22;3864;48.180;14.178;2023-09-08T10:04:39;24.10;99.90
7646;DHT22;3864;48.180;14.178;2023-09-08T10:07:06;24.20;99.90
7646;DHT22;3864;48.180;14.178;2023-09-08T10:09:35;24.40;99.90
7646;DHT22;3864;48.180;14.178;2023-09-08T10:12:04;24.40;99.90
7646;DHT22;3864;48.180;14.178;2023-09-08T10:14:32;24.80;99.90
7646;DHT22;3864;48.180;14.178;2023-09-08T10:17:02;24.90;99.90
7646;DHT22;3864;48.180;14.178;2023-09-08T10:19:32;25.20;99.90
7646;DHT22;3864;48.180;14.178;2023-09-08T10:22:10;25.40;99.90
7646;DHT22;3864;48.180;14.178;2023-09-08T10:24:40;25.40;99.90
7646;DHT22;3864;48.180;14.178;2023-09-08T10:27:10;25.80;99.90
7646;DHT22;3864;48.180;14.178;2023-09-08T10:29:38;25.90;99.90
7646;DHT22;3864;48.180;14.178;2023-09-08T10:32:07;25.90;99.90
7646;DHT22;3864;48.180;14.178;2023-09-08T10:34:36;26.30;99.90
7646;DHT22;3864;48.180;14.178;2023-09-08T10:37:18;26.70;99.90
7646;DHT22;3864;48.180;14.178;2023-09-08T10:39:45;26.80;99.90
7646;DHT22;3864;48.180;14.178;2023-09-08T10:42:22;26.80;99.90
7646;DHT22;3864;48.180;14.178;2023-09-08T10:45:02;26.70;99.90
7646;DHT22;3864;48.180;14.178;2023-09-08T10:47:54;27.20;99.90
7646;DHT22;3864;48.180;14.178;2023-09-08T10:50:30;27.30;99.90
7646;DHT22;3864;48.180;14.178;2023-09-08T10:53:06;27.50;99.90
7646;DHT22;3864;48.180;14.178;2023-09-08T10:55:36;27.50;99.90
7646;DHT22;3864;48.180;14.178;2023-09-08T10:58:04;27.90;99.90
7646;DHT22;3864;48.180;14.178;2023-09-08T11:00:43;28.00;99.90
7646;DHT22;3864;48.180;14.178;2023-09-08T11:03:12;28.10;99.90
7646;DHT22;3864;48.180;14.178;2023-09-08T11:05:41;27.30;99.90
7646;DHT22;3864;48.180;14.178;2023-09-08T11:08:09;27.70;99.90
7646;DHT22;3864;48.180;14.178;2023-09-08T11:10:36;27.90;99.90
7646;DHT22;3864;48.180;14.178;2023-09-08T11:13:06;28.00;99.90
7646;DHT22;3864;48.180;14.178;2023-09-08T11:15:34;28.30;99.90
7646;DHT22;3864;48.180;14.178;2023-09-08T11:18:07;28.50;99.90
7646;DHT22;3864;48.180;14.178;2023-09-08T11:20:35;28.60;99.90
7646;DHT22;3864;48.180;14.178;2023-09-08T11:23:06;28.50;99.90
7646;DHT22;3864;48.180;14.178;2023-09-08T11:25:37;28.60;99.90
7646;DHT22;3864;48.180;14.178;2023-09-08T11:28:05;28.10;99.90
7646;DHT22;3864;48.180;14.178;2023-09-08T11:30:33;28.50;99.90
7646;DHT22;3864;48.180;14.178;2023-09-08T11:33:01;28.50;99.90
7646;DHT22;3864;48.180;14.178;2023-09-08T11:35:32;28.40;99.90
7646;DHT22;3864;48.180;14.178;2023-09-08T11:38:00;28.60;99.90
7646;DHT22;3864;48.180;14.178;2023-09-08T11:40:35;28.80;99.90
7646;DHT22;3864;48.180;14.178;2023-09-08T11:43:03;29.20;99.90
7646;DHT22;3864;48.180;14.178;2023-09-08T11:45:34;29.20;99.90
7646;DHT22;3864;48.180;14.178;2023-09-08T11:48:02;29.40;99.90
7646;DHT22;3864;48.180;14.178;2023-09-08T11:50:29;29.30;99.90
7646;DHT22;3864;48.180;14.178;2023-09-08T11:52:57;29.50;99.90
7646;DHT22;3864;48.180;14.178;2023-09-08T11:55:25;29.70;99.90
7646;DHT22;3864;48.180;14.178;2023-09-08T11:57:55;29.80;99.90
7646;DHT22;3864;48.180;14.178;2023-09-08T12:00:23;29.80;99.90
7646;DHT22;3864;48.180;14.178;2023-09-08T12:02:51;29.70;99.90
7646;DHT22;3864;48.180;14.178;2023-09-08T12:05:22;29.60;99.90
7646;DHT22;3864;48.180;14.178;2023-09-08T12:07:50;29.40;99.90
7646;DHT22;3864;48.180;14.178;2023-09-08T12:10:18;28.80;99.90
7646;DHT22;3864;48.180;14.178;2023-09-08T12:12:46;29.20;99.90
7646;DHT22;3864;48.180;14.178;2023-09-08T12:15:33;29.10;99.90
7646;DHT22;3864;48.180;14.178;2023-09-08T12:18:02;28.90;99.90
7646;DHT22;3864;48.180;14.178;2023-09-08T12:20:29;29.10;99.90
7646;DHT22;3864;48.180;14.178;2023-09-08T12:22:58;29.40;99.90
7646;DHT22;3864;48.180;14.178;2023-09-08T12:25:26;29.40;99.90
7646;DHT22;3864;48.180;14.178;2023-09-08T12:27:54;29.60;99.90
7646;DHT22;3864;48.180;14.178;2023-09-08T12:30:22;28.90;99.90
7646;DHT22;3864;48.180;14.178;2023-09-08T12:32:57;29.10;99.90
7646;DHT22;3864;48.180;14.178;2023-09-08T12:35:26;29.50;99.90
7646;DHT22;3864;48.180;14.178;2023-09-08T12:38:00;29.70;99.90
7646;DHT22;3864;48.180;14.178;2023-09-08T12:40:28;29.60;99.90
7646;DHT22;3864;48.180;14.178;2023-09-08T12:42:56;29.90;99.90
7646;DHT22;3864;48.180;14.178;2023-09-08T12:45:25;29.10;99.90
7646;DHT22;3864;48.180;14.178;2023-09-08T12:47:53;29.60;99.90
7646;DHT22;3864;48.180;14.178;2023-09-08T12:50:25;29.90;99.90
7646;DHT22;3864;48.180;14.178;2023-09-08T12:52:52;30.00;99.90
7646;DHT22;3864;48.180;14.178;2023-09-08T12:55:19;29.90;99.90
7646;DHT22;3864;48.180;14.178;2023-09-08T12:57:46;30.10;99.90
7646;DHT22;3864;48.180;14.178;2023-09-08T13:00:16;30.30;99.90
7646;DHT22;3864;48.180;14.178;2023-09-08T13:02:44;30.60;99.90
7646;DHT22;3864;48.180;14.178;2023-09-08T13:05:11;30.40;99.90
7646;DHT22;3864;48.180;14.178;2023-09-08T13:07:40;30.30;99.90
7646;DHT22;3864;48.180;14.178;2023-09-08T13:10:08;30.30;99.90
7646;DHT22;3864;48.180;14.178;2023-09-08T13:12:35;30.50;99.90
7646;DHT22;3864;48.180;14.178;2023-09-08T13:15:03;30.10;99.90
7646;DHT22;3864;48.180;14.178;2023-09-08T13:17:30;30.20;99.90
7646;DHT22;3864;48.180;14.178;2023-09-08T13:19:57;30.20;99.90
7646;DHT22;3864;48.180;14.178;2023-09-08T13:22:24;30.20;99.90
7646;DHT22;3864;48.180;14.178;2023-09-08T13:24:53;30.40;99.90
7646;DHT22;3864;48.180;14.178;2023-09-08T13:27:20;30.20;99.90
7646;DHT22;3864;48.180;14.178;2023-09-08T13:29:47;30.40;99.90
7646;DHT22;3864;48.180;14.178;2023-09-08T13:32:14;30.50;99.90
7646;DHT22;3864;48.180;14.178;2023-09-08T13:34:41;30.70;99.90
7646;DHT22;3864;48.180;14.178;2023-09-08T13:37:09;30.50;99.90
7646;DHT22;3864;48.180;14.178;2023-09-08T13:39:36;30.30;99.90
7646;DHT22;3864;48.180;14.178;2023-09-08T13:42:05;30.40;99.90
7646;DHT22;3864;48.180;14.178;2023-09-08T13:44:32;30.20;99.90
7646;DHT22;3864;48.180;14.178;2023-09-08T13:49:34;29.60;99.90
7646;DHT22;3864;48.180;14.178;2023-09-08T13:52:01;28.90;99.90
7646;DHT22;3864;48.180;14.178;2023-09-08T13:54:28;28.40;99.90
7646;DHT22;3864;48.180;14.178;2023-09-08T13:56:59;28.00;99.90
7646;DHT22;3864;48.180;14.178;2023-09-08T13:59:30;27.60;99.90
7646;DHT22;3864;48.180;14.178;2023-09-08T14:01:57;27.40;99.90
7646;DHT22;3864;48.180;14.178;2023-09-08T14:04:25;27.30;99.90
7646;DHT22;3864;48.180;14.178;2023-09-08T14:06:53;27.20;99.90
7646;DHT22;3864;48.180;14.178;2023-09-08T14:09:20;27.00;99.90
7646;DHT22;3864;48.180;14.178;2023-09-08T14:11:47;27.00;99.90
7646;DHT22;3864;48.180;14.178;2023-09-08T14:14:14;26.90;99.90
7646;DHT22;3864;48.180;14.178;2023-09-08T14:16:42;26.70;99.90
7646;DHT22;3864;48.180;14.178;2023-09-08T14:19:09;26.50;99.90
7646;DHT22;3864;48.180;14.178;2023-09-08T14:21:36;26.40;99.90
7646;DHT22;3864;48.180;14.178;2023-09-08T14:24:05;26.40;99.90
7646;DHT22;3864;48.180;14.178;2023-09-08T14:26:32;26.40;99.90
7646;DHT22;3864;48.180;14.178;2023-09-08T14:29:00;26.30;99.90
7646;DHT22;3864;48.180;14.178;2023-09-08T14:31:27;26.30;99.90
7646;DHT22;3864;48.180;14.178;2023-09-08T14:33:56;26.20;99.90
7646;DHT22;3864;48.180;14.178;2023-09-08T14:36:23;26.00;99.90
7646;DHT22;3864;48.180;14.178;2023-09-08T14:38:51;25.90;99.90
7646;DHT22;3864;48.180;14.178;2023-09-08T14:41:18;25.80;99.90
7646;DHT22;3864;48.180;14.178;2023-09-08T14:43:45;25.90;99.90
7646;DHT22;3864;48.180;14.178;2023-09-08T14:46:12;25.90;99.90
7646;DHT22;3864;48.180;14.178;2023-09-08T14:48:39;25.80;99.90
7646;DHT22;3864;48.180;14.178;2023-09-08T14:51:08;25.70;99.90
7646;DHT22;3864;48.180;14.178;2023-09-08T14:53:34;25.60;99.90
7646;DHT22;3864;48.180;14.178;2023-09-08T14:56:02;25.60;99.90
7646;DHT22;3864;48.180;14.178;2023-09-08T14:58:30;25.60;99.90
7646;DHT22;3864;48.180;14.178;2023-09-08T15:01:00;25.70;99.90
7646;DHT22;3864;48.180;14.178;2023-09-08T15:03:30;25.90;99.90
7646;DHT22;3864;48.180;14.178;2023-09-08T15:05:57;26.30;99.90
7646;DHT22;3864;48.180;14.178;2023-09-08T15:08:26;26.90;99.90
7646;DHT22;3864;48.180;14.178;2023-09-08T15:10:53;27.30;99.90
7646;DHT22;3864;48.180;14.178;2023-09-08T15:13:20;27.60;99.90
7646;DHT22;3864;48.180;14.178;2023-09-08T15:15:47;27.90;99.90
7646;DHT22;3864;48.180;14.178;2023-09-08T15:18:14;28.30;99.90
7646;DHT22;3864;48.180;14.178;2023-09-08T15:20:50;28.40;99.90
7646;DHT22;3864;48.180;14.178;2023-09-08T15:23:17;28.50;99.90
7646;DHT22;3864;48.180;14.178;2023-09-08T15:25:51;28.60;99.90
7646;DHT22;3864;48.180;14.178;2023-09-08T15:29:38;28.70;99.90
7646;DHT22;3864;48.180;14.178;2023-09-08T15:32:34;28.60;99.90
7646;DHT22;3864;48.180;14.178;2023-09-08T15:35:03;28.80;99.90
7646;DHT22;3864;48.180;14.178;2023-09-08T15:37:31;28.80;99.90
7646;DHT22;3864;48.180;14.178;2023-09-08T15:39:58;29.00;99.90
7646;DHT22;3864;48.180;14.178;2023-09-08T15:42:27;29.00;99.90
7646;DHT22;3864;48.180;14.178;2023-09-08T15:44:54;29.00;99.90
7646;DHT22;3864;48.180;14.178;2023-09-08T15:47:21;28.90;99.90
7646;DHT22;3864;48.180;14.178;2023-09-08T15:49:48;28.80;99.90
7646;DHT22;3864;48.180;14.178;2023-09-08T15:52:15;28.70;99.90
7646;DHT22;3864;48.180;14.178;2023-09-08T15:54:42;28.50;99.90
7646;DHT22;3864;48.180;14.178;2023-09-08T15:57:09;28.50;99.90
7646;DHT22;3864;48.180;14.178;2023-09-08T15:59:38;28.50;99.90